Time;durP1;ratioP1;P1;durP2;ratioP2;P2;SDS_P1;SDS_P2;PMS_P1;PMS_P2;Temp;Humidity;BMP_temperature;BMP_pressure;BME280_temperature;BME280_humidity;BME280_pressure;Samples;Min_cycle;Max_cycle;Signal;HPM_P1;HPM_P2
2021/08/12 00:02:12;;;;;;;4.77;3.70;;;21.70;99.90;;;;;;5052325;28;20226;-70
2021/08/12 00:04:38;;;;;;;4.70;3.00;;;21.60;99.90;;;;;;5051485;28;20310;-69
2021/08/12 00:07:04;;;;;;;6.13;4.33;;;21.50;99.90;;;;;;5049823;28;20219;-69
2021/08/12 00:09:30;;;;;;;5.00;4.03;;;21.50;99.90;;;;;;5053809;28;20226;-69
2021/08/12 00:11:57;;;;;;;4.53;3.37;;;21.40;99.90;;;;;;5052724;28;20272;-68
2021/08/12 00:14:23;;;;;;;3.40;3.10;;;21.40;99.90;;;;;;5070618;28;20227;-69
2021/08/12 00:16:48;;;;;;;7.00;4.20;;;21.40;99.90;;;;;;5069741;28;20460;-69
2021/08/12 00:19:14;;;;;;;3.90;3.40;;;21.40;99.90;;;;;;5052286;28;20296;-69
2021/08/12 00:21:41;;;;;;;5.10;3.87;;;21.40;99.90;;;;;;5069728;28;20222;-69
2021/08/12 00:24:07;;;;;;;4.70;4.20;;;21.50;99.90;;;;;;5052661;28;20280;-69
2021/08/12 00:26:34;;;;;;;3.60;3.30;;;21.50;99.90;;;;;;5070335;28;20446;-69
2021/08/12 00:29:00;;;;;;;4.50;4.13;;;21.50;99.90;;;;;;5051459;28;20453;-71
2021/08/12 00:31:25;;;;;;;4.43;4.03;;;21.50;99.90;;;;;;5069700;28;20532;-69
2021/08/12 00:33:51;;;;;;;4.53;3.70;;;21.50;99.90;;;;;;5068474;28;20214;-69
2021/08/12 00:36:17;;;;;;;5.30;3.60;;;21.50;99.90;;;;;;5051790;28;20220;-70
2021/08/12 00:38:43;;;;;;;4.20;3.80;;;21.50;99.90;;;;;;5069281;28;20219;-68
2021/08/12 00:41:11;;;;;;;4.10;3.80;;;21.50;99.90;;;;;;5068860;28;20664;-70
2021/08/12 00:43:38;;;;;;;4.10;3.70;;;21.40;99.90;;;;;;5053303;28;20266;-70
2021/08/12 00:46:04;;;;;;;5.70;3.33;;;21.40;99.90;;;;;;5068283;28;20445;-69
2021/08/12 00:48:30;;;;;;;3.60;3.17;;;21.40;99.90;;;;;;5049379;28;20511;-69
2021/08/12 00:50:57;;;;;;;9.70;3.37;;;21.30;99.90;;;;;;5068708;28;20220;-70
2021/08/12 00:53:22;;;;;;;4.10;3.47;;;21.30;99.90;;;;;;5069271;28;20464;-69
2021/08/12 00:55:49;;;;;;;6.33;3.90;;;21.30;99.90;;;;;;5068930;28;20461;-69
2021/08/12 00:58:17;;;;;;;4.63;4.00;;;21.30;99.90;;;;;;5069065;28;20891;-71
2021/08/12 01:00:44;;;;;;;4.40;4.00;;;21.30;99.90;;;;;;5069278;28;20449;-70
2021/08/12 01:03:10;;;;;;;5.57;4.33;;;21.30;99.90;;;;;;5050334;28;20446;-68
2021/08/12 01:05:57;;;;;;;5.47;4.37;;;21.20;99.90;;;;;;5049038;28;20451;-68
2021/08/12 01:08:46;;;;;;;5.80;3.90;;;21.20;99.90;;;;;;5050939;28;20465;-69
2021/08/12 01:11:28;;;;;;;4.40;4.00;;;21.20;99.90;;;;;;5066894;28;20520;-69
2021/08/12 01:14:10;;;;;;;4.93;4.10;;;21.10;99.90;;;;;;5051555;28;20468;-69
2021/08/12 01:16:45;;;;;;;4.30;3.90;;;21.10;99.90;;;;;;5067596;28;20453;-70
2021/08/12 01:19:32;;;;;;;6.10;4.30;;;21.10;99.90;;;;;;5068384;28;21007;-69
2021/08/12 01:22:01;;;;;;;4.33;3.93;;;21.10;99.90;;;;;;5064089;28;20529;-69
2021/08/12 01:24:32;;;;;;;8.37;4.17;;;21.00;99.90;;;;;;5051587;28;20515;-67
2021/08/12 01:27:03;;;;;;;4.13;3.57;;;20.90;99.90;;;;;;5069856;28;20437;-67
2021/08/12 01:29:37;;;;;;;4.43;4.03;;;20.90;99.90;;;;;;5065847;28;20445;-67
2021/08/12 01:32:31;;;;;;;5.47;4.00;;;20.90;99.90;;;;;;5067925;28;20820;-69
2021/08/12 01:35:12;;;;;;;4.47;4.07;;;20.90;99.90;;;;;;5050978;28;21000;-69
2021/08/12 01:37:54;;;;;;;8.57;4.63;;;20.90;99.90;;;;;;5048478;28;21026;-68
2021/08/12 01:40:23;;;;;;;5.17;3.90;;;20.90;99.90;;;;;;5067097;28;20476;-69
2021/08/12 01:42:50;;;;;;;4.43;4.03;;;20.90;99.90;;;;;;5066955;28;20515;-68
2021/08/12 01:45:18;;;;;;;5.90;4.50;;;20.80;99.90;;;;;;5068400;28;20457;-69
2021/08/12 01:47:45;;;;;;;5.67;4.13;;;20.80;99.90;;;;;;5068109;28;20461;-69
2021/08/12 01:50:16;;;;;;;5.27;4.30;;;20.80;99.90;;;;;;5067881;28;20441;-68
2021/08/12 01:52:52;;;;;;;5.73;5.17;;;20.70;99.90;;;;;;5068105;28;20537;-69
2021/08/12 01:55:29;;;;;;;5.67;4.23;;;20.70;99.90;;;;;;5068817;28;20458;-69
2021/08/12 01:57:56;;;;;;;5.57;4.73;;;20.70;99.90;;;;;;5050915;28;20461;-67
2021/08/12 02:00:25;;;;;;;5.10;3.90;;;20.60;99.90;;;;;;5052057;28;20461;-69
2021/08/12 02:02:52;;;;;;;4.30;3.90;;;20.60;99.90;;;;;;5067521;28;20464;-69
2021/08/12 02:05:18;;;;;;;4.80;4.10;;;20.60;99.90;;;;;;5067766;28;20878;-69
2021/08/12 02:07:47;;;;;;;9.13;4.63;;;20.60;99.90;;;;;;5051133;28;20560;-68
2021/08/12 02:10:15;;;;;;;4.70;4.03;;;20.50;99.90;;;;;;5067110;28;20442;-68
2021/08/12 02:12:42;;;;;;;5.03;4.53;;;20.50;99.90;;;;;;5068227;28;20446;-68
2021/08/12 02:15:10;;;;;;;5.30;3.80;;;20.50;99.90;;;;;;5067770;28;20465;-68
2021/08/12 02:17:37;;;;;;;4.70;3.70;;;20.50;99.90;;;;;;5069804;28;20453;-68
2021/08/12 02:20:07;;;;;;;5.53;4.23;;;20.50;99.90;;;;;;5071429;28;20498;-69
2021/08/12 02:22:44;;;;;;;9.67;4.20;;;20.50;99.90;;;;;;5072129;28;20454;-68
2021/08/12 02:25:16;;;;;;;4.30;3.90;;;20.40;99.90;;;;;;5061655;28;20864;-69
2021/08/12 02:27:44;;;;;;;6.20;4.33;;;20.40;99.90;;;;;;5069767;28;20452;-69
2021/08/12 02:30:11;;;;;;;7.57;4.53;;;20.40;99.90;;;;;;5035695;28;20439;-69
2021/08/12 02:32:38;;;;;;;4.63;4.13;;;20.40;99.90;;;;;;5054301;28;20453;-68
2021/08/12 02:35:08;;;;;;;4.60;4.07;;;20.40;99.90;;;;;;5071534;28;20479;-70
2021/08/12 02:37:36;;;;;;;6.87;4.33;;;20.30;99.90;;;;;;5070458;28;20465;-69
2021/08/12 02:40:04;;;;;;;4.33;3.73;;;20.30;99.90;;;;;;5070478;28;20449;-69
2021/08/12 02:42:32;;;;;;;8.00;4.40;;;20.30;99.90;;;;;;5066843;28;20445;-69
2021/08/12 02:44:58;;;;;;;5.33;4.10;;;20.20;99.90;;;;;;5054101;28;20456;-68
2021/08/12 02:47:25;;;;;;;5.00;4.50;;;20.00;99.90;;;;;;5071720;28;21167;-68
2021/08/12 02:49:53;;;;;;;5.60;3.83;;;20.10;99.90;;;;;;5070436;28;20477;-69
2021/08/12 02:52:20;;;;;;;9.07;4.73;;;20.10;99.90;;;;;;5050948;28;20456;-69
2021/08/12 02:54:49;;;;;;;5.57;4.27;;;20.10;99.90;;;;;;5052708;28;20993;-69
2021/08/12 02:57:16;;;;;;;4.70;4.17;;;20.10;99.90;;;;;;5054606;28;20477;-68
2021/08/12 02:59:43;;;;;;;4.93;4.20;;;20.10;99.90;;;;;;5054939;28;20514;-68
2021/08/12 03:02:10;;;;;;;4.40;4.00;;;20.10;99.90;;;;;;5070246;28;20528;-69
2021/08/12 03:04:36;;;;;;;4.23;3.83;;;20.00;99.90;;;;;;5071634;28;20454;-69
2021/08/12 03:07:04;;;;;;;5.67;5.17;;;20.00;99.90;;;;;;5070822;28;20452;-69
2021/08/12 03:09:30;;;;;;;5.30;4.67;;;20.00;99.90;;;;;;5071456;28;20242;-70
2021/08/12 03:11:59;;;;;;;4.80;4.20;;;20.00;99.90;;;;;;5069283;28;20446;-69
2021/08/12 03:14:30;;;;;;;5.30;3.60;;;20.00;99.90;;;;;;5071330;28;20476;-69
2021/08/12 03:16:57;;;;;;;7.43;3.80;;;19.90;99.90;;;;;;5071144;28;20450;-70
2021/08/12 03:19:24;;;;;;;5.27;4.23;;;19.90;99.90;;;;;;5071181;28;20951;-69
2021/08/12 03:22:10;;;;;;;5.13;4.10;;;19.90;99.90;;;;;;5052417;28;20462;-69
2021/08/12 03:24:39;;;;;;;4.80;4.37;;;19.80;99.90;;;;;;5056812;28;20844;-70
2021/08/12 03:27:07;;;;;;;4.57;3.93;;;19.80;99.90;;;;;;5054577;28;20442;-69
2021/08/12 03:29:33;;;;;;;5.87;3.77;;;19.80;99.90;;;;;;5069067;28;20478;-70
2021/08/12 03:31:59;;;;;;;6.67;5.07;;;19.80;99.90;;;;;;5070658;28;20896;-69
2021/08/12 03:34:24;;;;;;;6.20;4.87;;;19.80;99.90;;;;;;5070949;28;20272;-69
2021/08/12 03:36:51;;;;;;;6.40;4.90;;;19.80;99.90;;;;;;5048705;28;20230;-69
2021/08/12 03:39:17;;;;;;;5.80;4.77;;;19.80;99.90;;;;;;5054160;28;20514;-69
2021/08/12 03:41:43;;;;;;;5.70;4.10;;;19.70;99.90;;;;;;5070159;28;21009;-69
2021/08/12 03:44:09;;;;;;;8.30;4.93;;;19.70;99.90;;;;;;5053465;28;20211;-70
2021/08/12 03:46:35;;;;;;;6.80;4.87;;;19.70;99.90;;;;;;5071076;28;20336;-70
2021/08/12 03:49:03;;;;;;;5.63;4.40;;;19.70;99.90;;;;;;5069763;28;20249;-69
2021/08/12 03:51:29;;;;;;;6.13;4.20;;;19.70;99.90;;;;;;5070424;28;20207;-69
2021/08/12 03:53:56;;;;;;;5.13;4.23;;;19.70;99.90;;;;;;5070145;28;20821;-69
2021/08/12 03:56:22;;;;;;;5.60;5.20;;;19.60;99.90;;;;;;5070151;28;20446;-69
2021/08/12 03:58:48;;;;;;;6.17;4.67;;;19.60;99.90;;;;;;5070031;28;20592;-69
2021/08/12 04:01:13;;;;;;;6.10;5.00;;;19.60;99.90;;;;;;5050819;28;20683;-69
2021/08/12 04:03:39;;;;;;;5.10;4.17;;;19.60;99.90;;;;;;5053784;28;20233;-70
2021/08/12 04:06:06;;;;;;;8.43;4.43;;;19.60;99.90;;;;;;5052018;28;20219;-70
2021/08/12 04:08:32;;;;;;;6.37;4.47;;;19.50;99.90;;;;;;5053577;28;20480;-71
2021/08/12 04:10:57;;;;;;;5.30;4.30;;;19.50;99.90;;;;;;5069225;28;20207;-69
2021/08/12 04:13:23;;;;;;;4.37;3.97;;;19.50;99.90;;;;;;5053459;28;20309;-69
2021/08/12 04:15:49;;;;;;;6.03;4.17;;;19.50;99.90;;;;;;5067464;28;20241;-69
2021/08/12 04:18:15;;;;;;;6.83;4.20;;;19.50;99.90;;;;;;5069754;28;20325;-69
2021/08/12 04:20:41;;;;;;;4.93;4.37;;;19.50;99.90;;;;;;5052693;28;20458;-70
2021/08/12 04:23:07;;;;;;;5.50;4.80;;;19.40;99.90;;;;;;5069743;28;20211;-69
2021/08/12 04:25:32;;;;;;;4.80;4.03;;;19.40;99.90;;;;;;5069358;28;20284;-70
2021/08/12 04:27:58;;;;;;;5.90;4.37;;;19.40;99.90;;;;;;5051654;28;20219;-71
2021/08/12 04:30:25;;;;;;;5.80;3.83;;;19.40;99.90;;;;;;5051604;28;20247;-69
2021/08/12 04:32:50;;;;;;;4.20;3.80;;;19.40;99.90;;;;;;5068298;28;20470;-69
2021/08/12 04:35:16;;;;;;;4.60;4.10;;;19.40;99.90;;;;;;5069662;28;20645;-69
2021/08/12 04:37:44;;;;;;;5.67;4.07;;;19.40;99.90;;;;;;5069478;28;20718;-69
2021/08/12 04:40:12;;;;;;;8.10;4.27;;;19.30;99.90;;;;;;5067107;28;20442;-71
2021/08/12 04:42:37;;;;;;;6.07;4.50;;;19.20;99.90;;;;;;5069724;28;20446;-68
2021/08/12 04:45:04;;;;;;;5.43;4.20;;;19.30;99.90;;;;;;5068446;28;20489;-69
2021/08/12 04:47:29;;;;;;;5.00;3.80;;;19.30;99.90;;;;;;5052860;28;20284;-70
2021/08/12 04:49:56;;;;;;;4.67;4.17;;;19.30;99.90;;;;;;5051909;28;20524;-70
2021/08/12 04:52:22;;;;;;;4.80;4.10;;;19.30;99.90;;;;;;5069245;28;20223;-69
2021/08/12 04:54:49;;;;;;;5.67;4.60;;;19.20;99.90;;;;;;5069446;28;20461;-69
2021/08/12 04:57:15;;;;;;;5.20;4.60;;;19.20;99.90;;;;;;5069250;28;20465;-69
2021/08/12 04:59:41;;;;;;;5.87;4.30;;;19.20;99.90;;;;;;5068629;28;20627;-69
2021/08/12 05:02:07;;;;;;;4.27;3.87;;;19.20;99.90;;;;;;5050872;28;20222;-71
2021/08/12 05:04:33;;;;;;;9.13;4.47;;;19.20;99.90;;;;;;5065006;28;20215;-69
2021/08/12 05:06:58;;;;;;;5.83;4.60;;;19.20;99.90;;;;;;5065916;28;20211;-69
2021/08/12 05:09:24;;;;;;;5.20;4.00;;;19.20;99.90;;;;;;5065869;28;20249;-69
2021/08/12 05:11:50;;;;;;;5.63;4.80;;;19.20;99.90;;;;;;5064523;28;20215;-69
2021/08/12 05:14:16;;;;;;;8.10;5.43;;;19.20;99.90;;;;;;5050379;28;20767;-69
2021/08/12 05:16:41;;;;;;;10.67;5.10;;;19.20;99.90;;;;;;5069012;28;20214;-69
2021/08/12 05:19:09;;;;;;;4.67;4.20;;;19.20;99.90;;;;;;5066510;28;20254;-69
2021/08/12 05:21:35;;;;;;;5.27;4.77;;;19.20;99.90;;;;;;5052228;28;20470;-69
2021/08/12 05:24:01;;;;;;;6.57;4.50;;;19.20;99.90;;;;;;5065552;28;20461;-69
2021/08/12 05:26:27;;;;;;;6.30;4.07;;;19.20;99.90;;;;;;5051152;28;20215;-68
2021/08/12 05:28:53;;;;;;;3.97;3.60;;;19.20;99.90;;;;;;5062435;28;20272;-69
2021/08/12 05:31:19;;;;;;;4.73;4.13;;;19.20;99.90;;;;;;5068584;28;20226;-68
2021/08/12 05:33:44;;;;;;;5.47;4.30;;;19.20;99.90;;;;;;5061675;28;20561;-70
2021/08/12 05:36:10;;;;;;;5.63;4.50;;;19.20;99.90;;;;;;5046462;28;20246;-72
2021/08/12 05:38:36;;;;;;;7.87;5.20;;;19.20;99.90;;;;;;5065398;28;20223;-69
2021/08/12 05:41:02;;;;;;;5.63;4.50;;;19.20;99.90;;;;;;5065895;28;20253;-69
2021/08/12 05:43:28;;;;;;;8.60;5.30;;;19.20;99.90;;;;;;5048240;28;20515;-69
2021/08/12 05:45:55;;;;;;;5.90;4.43;;;19.20;99.90;;;;;;5046947;28;20465;-70
2021/08/12 05:48:21;;;;;;;5.63;4.53;;;19.30;99.90;;;;;;5061425;28;20521;-69
2021/08/12 05:50:47;;;;;;;6.30;5.20;;;19.30;99.90;;;;;;5050647;28;20292;-69
2021/08/12 05:53:16;;;;;;;5.20;4.70;;;19.30;99.90;;;;;;5065135;28;20465;-71
2021/08/12 05:55:42;;;;;;;4.73;4.23;;;19.20;99.90;;;;;;5050837;28;20477;-69
2021/08/12 05:58:10;;;;;;;9.07;4.53;;;19.30;99.90;;;;;;5050043;28;20556;-69
2021/08/12 06:00:35;;;;;;;6.83;4.60;;;19.30;99.90;;;;;;5065991;28;20524;-70
2021/08/12 06:03:12;;;;;;;5.30;4.33;;;19.30;99.90;;;;;;5066001;28;20290;-70
2021/08/12 06:05:39;;;;;;;5.37;4.80;;;19.30;99.90;;;;;;5066133;28;20218;-68
2021/08/12 06:08:08;;;;;;;6.90;5.10;;;19.30;99.90;;;;;;5061094;28;20453;-69
2021/08/12 06:10:35;;;;;;;6.07;4.30;;;19.30;99.90;;;;;;5066629;28;20450;-70
2021/08/12 06:13:02;;;;;;;5.03;4.50;;;19.30;99.90;;;;;;5065379;28;20453;-69
2021/08/12 06:15:29;;;;;;;5.70;4.57;;;19.30;99.90;;;;;;5049295;28;20518;-69
2021/08/12 06:17:55;;;;;;;4.43;4.03;;;19.30;99.90;;;;;;5046888;28;20543;-71
2021/08/12 06:20:22;;;;;;;4.30;3.90;;;19.40;99.90;;;;;;5066028;28;20449;-69
2021/08/12 06:22:49;;;;;;;5.40;4.27;;;19.40;99.90;;;;;;5049619;28;20520;-69
2021/08/12 06:25:16;;;;;;;4.70;4.20;;;19.40;99.90;;;;;;5049944;28;20973;-70
2021/08/12 06:27:42;;;;;;;8.57;5.00;;;19.50;99.90;;;;;;5066688;28;20480;-69
2021/08/12 06:30:09;;;;;;;5.13;4.57;;;19.50;99.90;;;;;;5065743;28;20720;-69
2021/08/12 06:32:38;;;;;;;5.40;3.97;;;19.60;99.90;;;;;;5066664;28;20227;-69
2021/08/12 06:35:06;;;;;;;6.40;5.00;;;19.60;99.90;;;;;;5066615;28;20988;-69
2021/08/12 06:38:03;;;;;;;4.20;3.80;;;19.60;99.90;;;;;;5067188;28;20477;-69
2021/08/12 06:40:29;;;;;;;6.87;4.67;;;19.70;99.90;;;;;;5040162;28;20988;-70
2021/08/12 06:42:55;;;;;;;6.50;4.57;;;19.70;99.90;;;;;;5068133;28;20860;-69
2021/08/12 06:45:24;;;;;;;5.80;4.73;;;19.70;99.90;;;;;;5062126;28;20452;-69
2021/08/12 06:47:52;;;;;;;6.00;4.37;;;19.70;99.90;;;;;;5051445;28;20457;-69
2021/08/12 06:50:21;;;;;;;5.53;4.43;;;19.70;99.90;;;;;;5047760;28;20457;-69
2021/08/12 06:52:48;;;;;;;6.37;5.40;;;19.80;99.90;;;;;;5048113;28;20461;-69
2021/08/12 06:55:14;;;;;;;6.20;4.70;;;19.80;99.90;;;;;;5066000;28;21038;-70
2021/08/12 06:57:40;;;;;;;4.47;4.07;;;19.80;99.90;;;;;;5040124;28;20273;-68
2021/08/12 07:00:07;;;;;;;5.43;4.30;;;19.90;99.90;;;;;;5047733;28;20245;-69
2021/08/12 07:02:33;;;;;;;5.23;4.73;;;20.00;99.90;;;;;;5063337;28;20438;-68
2021/08/12 07:04:58;;;;;;;5.87;4.57;;;20.00;99.90;;;;;;5069918;28;20456;-69
2021/08/12 07:07:25;;;;;;;5.13;4.47;;;20.10;99.90;;;;;;5070803;28;20222;-69
2021/08/12 07:09:52;;;;;;;5.73;4.57;;;20.20;99.90;;;;;;5049259;28;20450;-70
2021/08/12 07:12:18;;;;;;;6.37;4.60;;;20.20;99.90;;;;;;5065035;28;20454;-69
2021/08/12 07:14:43;;;;;;;4.50;3.90;;;20.30;99.90;;;;;;5066913;28;21036;-69
2021/08/12 07:17:09;;;;;;;4.57;4.17;;;20.40;99.90;;;;;;5046998;28;20587;-72
2021/08/12 07:19:35;;;;;;;4.80;4.30;;;20.50;99.90;;;;;;5067223;28;20241;-69
2021/08/12 07:22:01;;;;;;;6.63;4.07;;;20.60;99.90;;;;;;5050565;28;20231;-69
2021/08/12 07:24:27;;;;;;;5.83;4.50;;;20.60;99.90;;;;;;5047795;28;20714;-69
2021/08/12 07:26:53;;;;;;;4.70;4.10;;;20.70;99.90;;;;;;5063841;28;20483;-69
2021/08/12 07:29:19;;;;;;;5.60;4.20;;;20.70;99.90;;;;;;5048024;28;20628;-69
2021/08/12 07:31:47;;;;;;;6.67;5.07;;;20.80;99.90;;;;;;5061645;28;20454;-70
2021/08/12 07:34:13;;;;;;;6.23;4.60;;;20.90;99.90;;;;;;5051688;28;20997;-70
2021/08/12 07:36:39;;;;;;;6.40;4.50;;;21.00;99.90;;;;;;5050669;28;20576;-69
2021/08/12 07:39:07;;;;;;;5.37;4.87;;;21.10;99.90;;;;;;5051781;28;20248;-69
2021/08/12 07:41:34;;;;;;;7.00;5.07;;;21.20;99.90;;;;;;5033739;28;20458;-71
2021/08/12 07:44:02;;;;;;;6.80;4.90;;;21.30;99.90;;;;;;5068164;28;20824;-69
2021/08/12 07:46:28;;;;;;;5.50;4.97;;;21.40;99.90;;;;;;5069333;28;20883;-69
2021/08/12 07:48:53;;;;;;;5.10;4.03;;;21.50;99.90;;;;;;5048393;28;20459;-69
2021/08/12 07:51:23;;;;;;;5.90;4.50;;;21.50;99.90;;;;;;5066589;28;21001;-69
2021/08/12 07:53:52;;;;;;;6.00;4.90;;;21.60;99.90;;;;;;5066962;28;20797;-69
2021/08/12 07:56:18;;;;;;;6.20;5.13;;;21.70;99.90;;;;;;5067098;28;20515;-69
2021/08/12 07:58:44;;;;;;;6.13;4.83;;;21.80;99.90;;;;;;5049877;28;20871;-69
2021/08/12 08:01:09;;;;;;;5.87;4.33;;;21.80;99.90;;;;;;5064203;28;20464;-71
2021/08/12 08:03:35;;;;;;;7.27;4.60;;;22.00;99.90;;;;;;5065780;28;20649;-69
2021/08/12 08:06:01;;;;;;;5.93;4.70;;;22.00;99.90;;;;;;5066420;28;20218;-69
2021/08/12 08:08:28;;;;;;;4.93;4.33;;;22.10;99.90;;;;;;5068299;28;20223;-69
2021/08/12 08:10:54;;;;;;;5.37;4.70;;;22.20;99.90;;;;;;5068475;28;20454;-69
2021/08/12 08:13:20;;;;;;;4.80;4.33;;;22.30;99.90;;;;;;5067628;28;20878;-71
2021/08/12 08:15:46;;;;;;;5.70;5.03;;;22.40;99.90;;;;;;5051150;28;20566;-70
2021/08/12 08:18:12;;;;;;;5.30;4.80;;;22.50;99.90;;;;;;5051650;28;20247;-69
2021/08/12 08:20:37;;;;;;;7.57;4.77;;;22.60;99.90;;;;;;5068682;28;20219;-69
2021/08/12 08:23:05;;;;;;;5.90;4.90;;;22.60;99.90;;;;;;5067083;28;20226;-69
2021/08/12 08:25:31;;;;;;;8.80;4.67;;;22.60;99.90;;;;;;5068196;28;20638;-69
2021/08/12 08:27:58;;;;;;;5.40;4.90;;;22.70;99.90;;;;;;5066477;28;20434;-68
2021/08/12 08:30:23;;;;;;;4.93;4.43;;;22.80;99.90;;;;;;5065355;28;20215;-69
2021/08/12 08:32:49;;;;;;;6.43;4.43;;;22.90;99.90;;;;;;5066726;28;20460;-68
2021/08/12 08:35:17;;;;;;;6.10;5.00;;;22.90;99.90;;;;;;5049944;28;20223;-71
2021/08/12 08:37:43;;;;;;;6.37;5.07;;;23.00;99.90;;;;;;5050160;28;20230;-70
2021/08/12 08:40:09;;;;;;;4.53;4.13;;;23.10;99.90;;;;;;5043690;28;20498;-70
2021/08/12 08:42:38;;;;;;;6.67;5.27;;;23.20;99.90;;;;;;5067500;28;20649;-71
2021/08/12 08:45:04;;;;;;;7.10;5.47;;;23.30;99.90;;;;;;5067425;28;20461;-71
2021/08/12 08:47:30;;;;;;;4.73;4.23;;;23.40;99.90;;;;;;5046843;28;20476;-69
2021/08/12 08:49:57;;;;;;;5.60;4.70;;;23.50;99.90;;;;;;5065085;28;20453;-69
2021/08/12 08:52:25;;;;;;;5.30;4.80;;;23.60;99.90;;;;;;5066489;28;21047;-69
2021/08/12 08:54:51;;;;;;;5.97;5.37;;;23.70;99.90;;;;;;5059349;28;20464;-70
2021/08/12 08:57:17;;;;;;;5.10;4.60;;;23.90;99.90;;;;;;5063335;28;20460;-70
2021/08/12 08:59:44;;;;;;;8.40;5.00;;;23.90;99.90;;;;;;5064283;28;20276;-69
2021/08/12 09:02:10;;;;;;;6.33;5.00;;;24.00;99.90;;;;;;5065681;28;20511;-69
2021/08/12 09:04:36;;;;;;;4.97;4.43;;;24.10;99.90;;;;;;5067396;28;21037;-72
2021/08/12 09:07:08;;;;;;;6.80;4.53;;;24.20;99.90;;;;;;5060815;28;20218;-70
2021/08/12 09:09:34;;;;;;;6.33;4.70;;;24.30;99.90;;;;;;5067031;28;20454;-69
2021/08/12 09:12:00;;;;;;;4.97;4.47;;;24.40;99.90;;;;;;5065399;28;20453;-71
2021/08/12 09:14:36;;;;;;;7.20;4.83;;;24.60;99.90;;;;;;5062480;28;20543;-71
2021/08/12 09:17:21;;;;;;;6.50;5.50;;;24.80;99.90;;;;;;5048785;28;20449;-71
2021/08/12 09:20:13;;;;;;;6.77;5.23;;;24.80;99.90;;;;;;5043400;28;20495;-70
2021/08/12 09:23:05;;;;;;;5.90;5.00;;;24.90;99.90;;;;;;5064639;28;20548;-70
2021/08/12 09:25:44;;;;;;;5.20;4.70;;;25.00;99.90;;;;;;5047786;28;20461;-69
2021/08/12 09:28:16;;;;;;;6.50;5.13;;;25.00;99.90;;;;;;5045178;28;20437;-70
2021/08/12 09:30:44;;;;;;;5.20;4.63;;;25.10;99.90;;;;;;5048872;28;20468;-70
2021/08/12 09:33:15;;;;;;;6.07;5.07;;;25.20;99.90;;;;;;5066460;28;25680;-69
2021/08/12 09:35:41;;;;;;;4.90;4.40;;;25.30;99.90;;;;;;5063139;28;20464;-70
2021/08/12 09:38:09;;;;;;;5.50;5.00;;;25.30;99.90;;;;;;5047553;28;20927;-71
2021/08/12 09:40:36;;;;;;;5.97;5.37;;;25.40;99.90;;;;;;5063069;28;20214;-70
2021/08/12 09:43:04;;;;;;;5.33;4.87;;;25.50;99.90;;;;;;5064002;28;20472;-70
2021/08/12 09:45:31;;;;;;;5.77;4.53;;;25.60;99.90;;;;;;5065299;28;20234;-70
2021/08/12 09:48:08;;;;;;;5.97;4.77;;;25.60;99.90;;;;;;5064197;28;20457;-69
2021/08/12 09:50:35;;;;;;;5.63;5.13;;;25.70;99.90;;;;;;5065149;28;20464;-71
2021/08/12 09:53:02;;;;;;;6.00;5.47;;;25.60;99.90;;;;;;5048139;28;20533;-69
2021/08/12 09:55:35;;;;;;;7.50;4.90;;;25.60;99.90;;;;;;5064490;28;20468;-71
2021/08/12 09:58:09;;;;;;;6.73;4.93;;;25.60;99.90;;;;;;5045392;28;20481;-69
2021/08/12 10:00:45;;;;;;;4.77;4.37;;;25.80;99.90;;;;;;5062412;28;20489;-69
2021/08/12 10:03:32;;;;;;;5.60;5.10;;;25.90;99.90;;;;;;5058603;28;20437;-69
2021/08/12 10:06:05;;;;;;;5.10;4.70;;;26.00;99.90;;;;;;5054219;28;20458;-70
2021/08/12 10:08:34;;;;;;;5.13;4.63;;;26.10;99.90;;;;;;5057182;28;20461;-69
2021/08/12 10:11:23;;;;;;;7.40;5.10;;;26.20;99.90;;;;;;5064278;28;20445;-71
2021/08/12 10:14:00;;;;;;;7.83;5.23;;;26.30;99.90;;;;;;5065165;28;20465;-70
2021/08/12 10:16:28;;;;;;;5.77;5.00;;;26.40;99.90;;;;;;5062404;28;20453;-70
2021/08/12 10:18:55;;;;;;;6.67;4.97;;;26.50;99.90;;;;;;5045197;28;20503;-72
2021/08/12 10:21:21;;;;;;;5.87;4.73;;;26.50;99.90;;;;;;5060897;28;20464;-70
2021/08/12 10:23:50;;;;;;;4.97;4.50;;;26.50;99.90;;;;;;5043918;28;20473;-70
2021/08/12 10:26:23;;;;;;;6.10;5.30;;;26.50;99.90;;;;;;5058632;28;20557;-69
2021/08/12 10:28:53;;;;;;;5.23;4.77;;;26.50;99.90;;;;;;5061840;28;20461;-69
2021/08/12 10:31:24;;;;;;;5.27;4.77;;;26.50;99.90;;;;;;5049730;28;20515;-69
2021/08/12 10:33:50;;;;;;;6.37;4.87;;;26.50;99.90;;;;;;5063860;28;21024;-70
2021/08/12 10:36:21;;;;;;;5.33;4.60;;;26.60;99.90;;;;;;5062676;28;20461;-70
2021/08/12 10:38:46;;;;;;;5.63;5.03;;;26.80;99.90;;;;;;5061523;28;20473;-71
2021/08/12 10:41:15;;;;;;;5.53;4.90;;;26.90;99.90;;;;;;5051242;28;20445;-70
2021/08/12 10:43:41;;;;;;;6.40;5.50;;;26.90;99.90;;;;;;5066563;28;20761;-72
2021/08/12 10:46:07;;;;;;;4.93;4.50;;;27.00;99.90;;;;;;5068103;28;20453;-69
2021/08/12 10:48:33;;;;;;;8.03;5.87;;;27.00;99.90;;;;;;5067938;28;20838;-71
2021/08/12 10:51:10;;;;;;;5.90;4.90;;;27.00;99.90;;;;;;5051133;28;20238;-71
2021/08/12 10:53:36;;;;;;;5.30;4.80;;;27.10;99.90;;;;;;5049988;28;20235;-69
2021/08/12 10:56:05;;;;;;;5.50;5.00;;;27.20;99.90;;;;;;5048180;28;20957;-69
2021/08/12 10:58:30;;;;;;;5.00;4.60;;;27.20;99.90;;;;;;5067449;28;20894;-69
2021/08/12 11:00:57;;;;;;;11.73;5.03;;;27.30;99.90;;;;;;5071154;28;20494;-70
2021/08/12 11:03:32;;;;;;;5.17;4.73;;;27.30;99.90;;;;;;5048835;28;20607;-70
2021/08/12 11:06:21;;;;;;;6.43;5.13;;;27.40;99.90;;;;;;5065160;28;20486;-69
2021/08/12 11:08:50;;;;;;;5.70;4.00;;;27.50;99.90;;;;;;5062505;28;20457;-69
2021/08/12 11:11:30;;;;;;;6.67;4.93;;;27.60;99.90;;;;;;5059025;28;20333;-70
2021/08/12 11:13:58;;;;;;;4.53;4.10;;;27.60;99.90;;;;;;5049614;28;20571;-73
2021/08/12 11:16:50;;;;;;;6.10;4.87;;;27.60;99.90;;;;;;5068253;28;20257;-72
2021/08/12 11:19:22;;;;;;;5.47;4.30;;;27.70;99.90;;;;;;5066826;28;20648;-70
2021/08/12 11:21:49;;;;;;;4.67;4.27;;;27.70;99.90;;;;;;5066550;28;20410;-70
2021/08/12 11:24:17;;;;;;;4.27;3.70;;;27.80;99.90;;;;;;5065949;28;20226;-70
2021/08/12 11:26:45;;;;;;;4.73;4.33;;;27.80;99.90;;;;;;5067296;28;20214;-70
2021/08/12 11:29:25;;;;;;;4.93;4.43;;;27.80;99.90;;;;;;5066560;28;20233;-69
2021/08/12 11:31:56;;;;;;;4.47;3.80;;;27.90;99.90;;;;;;5049804;28;20213;-70
2021/08/12 11:34:28;;;;;;;4.97;4.03;;;27.90;99.90;;;;;;5053100;28;20226;-71
2021/08/12 11:37:12;;;;;;;5.30;4.80;;;27.90;99.90;;;;;;5068622;28;20221;-69
2021/08/12 11:39:59;;;;;;;5.23;4.73;;;27.90;99.90;;;;;;5068375;28;20241;-70
2021/08/12 11:42:34;;;;;;;5.00;4.53;;;27.80;99.90;;;;;;5050434;28;20506;-72
2021/08/12 11:45:12;;;;;;;4.80;4.30;;;27.90;99.90;;;;;;5047504;28;20517;-70
2021/08/12 11:47:40;;;;;;;5.20;4.73;;;27.90;99.90;;;;;;5048648;28;20624;-70
2021/08/12 11:50:08;;;;;;;5.27;4.80;;;28.00;99.90;;;;;;5063578;28;20456;-70
2021/08/12 11:52:37;;;;;;;4.60;4.20;;;28.10;99.90;;;;;;5052217;28;20211;-70
2021/08/12 11:55:11;;;;;;;5.20;4.70;;;28.10;99.90;;;;;;5068115;28;20292;-70
2021/08/12 11:57:38;;;;;;;5.03;4.23;;;28.20;99.90;;;;;;5066782;28;20240;-70
2021/08/12 12:00:12;;;;;;;6.87;4.70;;;28.30;99.90;;;;;;5058174;28;20273;-71
2021/08/12 12:02:51;;;;;;;4.50;4.20;;;28.20;99.90;;;;;;5063119;28;20213;-70
2021/08/12 12:05:22;;;;;;;4.88;4.47;;;28.20;99.90;;;;;;5066393;28;20217;-69
2021/08/12 12:07:53;;;;;;;5.10;4.60;;;28.20;99.90;;;;;;5065051;28;20218;-71
2021/08/12 12:10:22;;;;;;;5.60;4.20;;;28.40;99.90;;;;;;5070331;28;20288;-69
2021/08/12 12:12:48;;;;;;;6.40;5.18;;;28.50;99.90;;;;;;5065530;28;20222;-69
2021/08/12 12:15:28;;;;;;;4.93;4.53;;;28.60;99.90;;;;;;5067271;28;20233;-70
2021/08/12 12:17:54;;;;;;;5.27;4.77;;;28.70;99.90;;;;;;5050067;28;20226;-70
2021/08/12 12:20:20;;;;;;;6.38;4.53;;;28.70;99.90;;;;;;5051275;28;20214;-72
2021/08/12 12:23:00;;;;;;;5.15;4.43;;;28.70;99.80;;;;;;5067700;28;20214;-70
2021/08/12 12:25:28;;;;;;;7.57;4.63;;;28.80;99.90;;;;;;5045895;28;20215;-72
2021/08/12 12:27:58;;;;;;;5.70;4.68;;;28.90;99.90;;;;;;5065012;28;20739;-70
2021/08/12 12:30:26;;;;;;;4.95;4.53;;;28.90;99.60;;;;;;5062382;28;20222;-69
2021/08/12 12:33:03;;;;;;;4.97;4.57;;;28.80;99.90;;;;;;5066705;28;20279;-69
2021/08/12 12:35:31;;;;;;;5.20;4.70;;;28.90;99.90;;;;;;5051595;28;20736;-70
2021/08/12 12:37:59;;;;;;;9.43;5.57;;;29.00;99.70;;;;;;5066904;28;20215;-69
2021/08/12 12:40:28;;;;;;;5.90;4.95;;;29.20;99.90;;;;;;5048828;28;20214;-70
2021/08/12 12:42:54;;;;;;;5.80;5.28;;;29.30;99.70;;;;;;5047092;28;20217;-70
2021/08/12 12:45:20;;;;;;;8.20;6.40;;;29.30;99.50;;;;;;5042576;28;20223;-70
2021/08/12 12:47:47;;;;;;;5.38;4.88;;;29.30;99.20;;;;;;5048277;28;20219;-71
2021/08/12 12:50:19;;;;;;;6.15;5.10;;;29.40;98.60;;;;;;5047499;28;20212;-73
2021/08/12 12:52:58;;;;;;;6.18;5.57;;;29.50;98.90;;;;;;5066538;28;20214;-70
2021/08/12 12:55:27;;;;;;;5.22;4.80;;;29.60;98.90;;;;;;5051046;28;20301;-70
2021/08/12 12:57:55;;;;;;;4.95;4.40;;;29.60;98.90;;;;;;5067574;28;20226;-69